sensor_id;sensor_type;location;lat;lon;timestamp;temperature;humidity
13326;DHT22;6732;51.044;3.746;2023-04-01T00:00:17;11.10;93.20
13326;DHT22;6732;51.044;3.746;2023-04-01T00:02:43;11.10;93.30
13326;DHT22;6732;51.044;3.746;2023-04-01T00:05:10;11.10;93.20
13326;DHT22;6732;51.044;3.746;2023-04-01T00:07:37;11.10;93.20
13326;DHT22;6732;51.044;3.746;2023-04-01T00:10:04;11.20;93.30
13326;DHT22;6732;51.044;3.746;2023-04-01T00:12:30;11.10;93.20
13326;DHT22;6732;51.044;3.746;2023-04-01T00:14:56;11.10;93.30
13326;DHT22;6732;51.044;3.746;2023-04-01T00:17:22;11.00;93.50
13326;DHT22;6732;51.044;3.746;2023-04-01T00:19:48;11.10;93.40
13326;DHT22;6732;51.044;3.746;2023-04-01T00:22:14;11.10;93.40
13326;DHT22;6732;51.044;3.746;2023-04-01T00:24:40;11.10;93.30
13326;DHT22;6732;51.044;3.746;2023-04-01T00:27:05;11.10;93.40
13326;DHT22;6732;51.044;3.746;2023-04-01T00:29:32;11.10;93.40
13326;DHT22;6732;51.044;3.746;2023-04-01T00:31:58;11.10;93.40
13326;DHT22;6732;51.044;3.746;2023-04-01T00:34:24;11.10;93.50
13326;DHT22;6732;51.044;3.746;2023-04-01T00:36:51;11.00;93.70
13326;DHT22;6732;51.044;3.746;2023-04-01T00:39:19;11.00;93.60
13326;DHT22;6732;51.044;3.746;2023-04-01T00:41:46;11.00;93.40
13326;DHT22;6732;51.044;3.746;2023-04-01T00:44:25;11.00;93.40
13326;DHT22;6732;51.044;3.746;2023-04-01T00:46:51;11.00;93.40
13326;DHT22;6732;51.044;3.746;2023-04-01T00:49:22;11.00;93.50
13326;DHT22;6732;51.044;3.746;2023-04-01T00:51:51;11.00;93.60
13326;DHT22;6732;51.044;3.746;2023-04-01T00:54:19;11.00;93.60
13326;DHT22;6732;51.044;3.746;2023-04-01T00:56:54;11.10;93.50
13326;DHT22;6732;51.044;3.746;2023-04-01T00:59:48;11.00;93.60
13326;DHT22;6732;51.044;3.746;2023-04-01T01:02:16;11.10;93.60
13326;DHT22;6732;51.044;3.746;2023-04-01T01:04:42;11.00;93.70
13326;DHT22;6732;51.044;3.746;2023-04-01T01:07:33;10.90;93.90
13326;DHT22;6732;51.044;3.746;2023-04-01T01:13:06;11.00;93.50
13326;DHT22;6732;51.044;3.746;2023-04-01T01:15:47;11.00;93.60
13326;DHT22;6732;51.044;3.746;2023-04-01T01:18:59;11.00;93.50
13326;DHT22;6732;51.044;3.746;2023-04-01T01:24:13;11.00;93.40
13326;DHT22;6732;51.044;3.746;2023-04-01T01:27:18;11.00;93.30
13326;DHT22;6732;51.044;3.746;2023-04-01T01:30:06;10.90;93.40
13326;DHT22;6732;51.044;3.746;2023-04-01T01:35:22;10.90;93.40
13326;DHT22;6732;51.044;3.746;2023-04-01T01:37:56;11.00;93.40
13326;DHT22;6732;51.044;3.746;2023-04-01T01:40:24;11.00;93.30
13326;DHT22;6732;51.044;3.746;2023-04-01T01:42:56;11.00;93.30
13326;DHT22;6732;51.044;3.746;2023-04-01T01:45:25;10.90;93.30
13326;DHT22;6732;51.044;3.746;2023-04-01T01:47:52;10.90;93.30
13326;DHT22;6732;51.044;3.746;2023-04-01T01:50:19;10.90;93.40
13326;DHT22;6732;51.044;3.746;2023-04-01T01:52:46;10.90;93.40
13326;DHT22;6732;51.044;3.746;2023-04-01T01:55:31;10.90;93.30
13326;DHT22;6732;51.044;3.746;2023-04-01T01:58:02;10.90;93.30
13326;DHT22;6732;51.044;3.746;2023-04-01T02:00:32;10.90;93.40
13326;DHT22;6732;51.044;3.746;2023-04-01T02:02:59;10.90;93.40
13326;DHT22;6732;51.044;3.746;2023-04-01T02:05:28;10.90;93.50
13326;DHT22;6732;51.044;3.746;2023-04-01T02:08:02;10.90;93.40
13326;DHT22;6732;51.044;3.746;2023-04-01T02:10:34;10.90;93.60
13326;DHT22;6732;51.044;3.746;2023-04-01T02:13:18;10.90;93.50
13326;DHT22;6732;51.044;3.746;2023-04-01T02:15:48;10.90;93.50
13326;DHT22;6732;51.044;3.746;2023-04-01T02:18:17;10.90;93.60
13326;DHT22;6732;51.044;3.746;2023-04-01T02:20:44;10.90;93.60
13326;DHT22;6732;51.044;3.746;2023-04-01T02:23:11;10.90;93.60
13326;DHT22;6732;51.044;3.746;2023-04-01T02:25:39;10.90;93.60
13326;DHT22;6732;51.044;3.746;2023-04-01T02:28:07;10.90;93.60
13326;DHT22;6732;51.044;3.746;2023-04-01T02:30:36;10.90;93.60
13326;DHT22;6732;51.044;3.746;2023-04-01T02:33:03;10.90;93.60
13326;DHT22;6732;51.044;3.746;2023-04-01T02:35:33;10.90;93.70
13326;DHT22;6732;51.044;3.746;2023-04-01T02:38:01;10.90;93.70
13326;DHT22;6732;51.044;3.746;2023-04-01T02:40:27;10.80;93.80
13326;DHT22;6732;51.044;3.746;2023-04-01T02:42:53;10.90;93.70
13326;DHT22;6732;51.044;3.746;2023-04-01T02:45:19;10.90;93.70
13326;DHT22;6732;51.044;3.746;2023-04-01T02:47:45;10.80;93.70
13326;DHT22;6732;51.044;3.746;2023-04-01T02:50:11;10.90;93.60
13326;DHT22;6732;51.044;3.746;2023-04-01T02:52:37;10.90;93.60
13326;DHT22;6732;51.044;3.746;2023-04-01T02:55:04;10.80;93.70
13326;DHT22;6732;51.044;3.746;2023-04-01T02:57:30;10.80;93.60
13326;DHT22;6732;51.044;3.746;2023-04-01T02:59:56;10.90;93.60
13326;DHT22;6732;51.044;3.746;2023-04-01T03:02:22;10.80;93.60
13326;DHT22;6732;51.044;3.746;2023-04-01T03:04:48;10.80;93.50
13326;DHT22;6732;51.044;3.746;2023-04-01T03:07:13;10.80;93.40
13326;DHT22;6732;51.044;3.746;2023-04-01T03:09:39;10.90;93.30
13326;DHT22;6732;51.044;3.746;2023-04-01T03:12:08;10.80;93.40
13326;DHT22;6732;51.044;3.746;2023-04-01T03:14:34;10.80;93.40
13326;DHT22;6732;51.044;3.746;2023-04-01T03:17:00;10.80;93.40
13326;DHT22;6732;51.044;3.746;2023-04-01T03:19:26;10.80;93.40
13326;DHT22;6732;51.044;3.746;2023-04-01T03:21:52;10.80;93.50
13326;DHT22;6732;51.044;3.746;2023-04-01T03:24:18;10.80;93.50
13326;DHT22;6732;51.044;3.746;2023-04-01T03:26:44;10.80;93.40
13326;DHT22;6732;51.044;3.746;2023-04-01T03:29:10;10.80;93.50
13326;DHT22;6732;51.044;3.746;2023-04-01T03:31:35;10.80;93.50
13326;DHT22;6732;51.044;3.746;2023-04-01T03:34:01;10.80;93.60
13326;DHT22;6732;51.044;3.746;2023-04-01T03:36:27;10.80;93.60
13326;DHT22;6732;51.044;3.746;2023-04-01T03:38:53;10.80;93.50
13326;DHT22;6732;51.044;3.746;2023-04-01T03:41:19;10.80;93.60
13326;DHT22;6732;51.044;3.746;2023-04-01T03:43:45;10.80;93.50
13326;DHT22;6732;51.044;3.746;2023-04-01T03:46:12;10.80;93.60
13326;DHT22;6732;51.044;3.746;2023-04-01T03:48:42;10.80;93.50
13326;DHT22;6732;51.044;3.746;2023-04-01T03:51:08;10.80;93.60
13326;DHT22;6732;51.044;3.746;2023-04-01T03:53:34;10.80;93.70
13326;DHT22;6732;51.044;3.746;2023-04-01T03:56:04;10.80;93.60
13326;DHT22;6732;51.044;3.746;2023-04-01T03:58:30;10.80;93.60
13326;DHT22;6732;51.044;3.746;2023-04-01T04:00:56;10.80;93.70
13326;DHT22;6732;51.044;3.746;2023-04-01T04:03:22;10.80;93.70
13326;DHT22;6732;51.044;3.746;2023-04-01T04:05:49;10.80;93.70
13326;DHT22;6732;51.044;3.746;2023-04-01T04:08:15;10.80;93.80
13326;DHT22;6732;51.044;3.746;2023-04-01T04:10:41;10.80;93.80
13326;DHT22;6732;51.044;3.746;2023-04-01T04:13:08;10.80;93.70
13326;DHT22;6732;51.044;3.746;2023-04-01T04:15:34;10.80;93.60
13326;DHT22;6732;51.044;3.746;2023-04-01T04:18:00;10.80;93.70
13326;DHT22;6732;51.044;3.746;2023-04-01T04:20:26;10.80;93.80
13326;DHT22;6732;51.044;3.746;2023-04-01T04:22:52;10.70;93.90
13326;DHT22;6732;51.044;3.746;2023-04-01T04:25:18;10.70;93.70
13326;DHT22;6732;51.044;3.746;2023-04-01T04:27:44;10.70;93.80
13326;DHT22;6732;51.044;3.746;2023-04-01T04:30:10;10.70;93.80
13326;DHT22;6732;51.044;3.746;2023-04-01T04:32:36;10.70;93.80
13326;DHT22;6732;51.044;3.746;2023-04-01T04:35:03;10.70;93.80
13326;DHT22;6732;51.044;3.746;2023-04-01T04:37:28;10.70;93.80
13326;DHT22;6732;51.044;3.746;2023-04-01T04:39:54;10.70;93.80
13326;DHT22;6732;51.044;3.746;2023-04-01T04:42:20;10.70;93.80
13326;DHT22;6732;51.044;3.746;2023-04-01T04:44:46;10.70;93.90
13326;DHT22;6732;51.044;3.746;2023-04-01T04:47:12;10.70;93.90
13326;DHT22;6732;51.044;3.746;2023-04-01T04:49:38;10.70;93.90
13326;DHT22;6732;51.044;3.746;2023-04-01T04:52:04;10.60;94.00
13326;DHT22;6732;51.044;3.746;2023-04-01T04:54:30;10.70;93.80
13326;DHT22;6732;51.044;3.746;2023-04-01T04:56:56;10.70;93.80
13326;DHT22;6732;51.044;3.746;2023-04-01T04:59:22;10.70;93.80
13326;DHT22;6732;51.044;3.746;2023-04-01T05:01:48;10.70;93.90
13326;DHT22;6732;51.044;3.746;2023-04-01T05:04:13;10.70;93.90
13326;DHT22;6732;51.044;3.746;2023-04-01T05:06:39;10.70;93.80
13326;DHT22;6732;51.044;3.746;2023-04-01T05:09:05;10.70;93.80
13326;DHT22;6732;51.044;3.746;2023-04-01T05:11:31;10.70;93.90
13326;DHT22;6732;51.044;3.746;2023-04-01T05:13:57;10.70;93.80
13326;DHT22;6732;51.044;3.746;2023-04-01T05:16:23;10.70;93.70
13326;DHT22;6732;51.044;3.746;2023-04-01T05:18:49;10.70;93.70
13326;DHT22;6732;51.044;3.746;2023-04-01T05:21:15;10.70;93.60
13326;DHT22;6732;51.044;3.746;2023-04-01T05:23:42;10.70;93.50
13326;DHT22;6732;51.044;3.746;2023-04-01T05:26:13;10.70;93.60
13326;DHT22;6732;51.044;3.746;2023-04-01T05:28:40;10.70;93.60
13326;DHT22;6732;51.044;3.746;2023-04-01T05:31:06;10.70;93.60
13326;DHT22;6732;51.044;3.746;2023-04-01T05:33:33;10.70;93.60
13326;DHT22;6732;51.044;3.746;2023-04-01T05:36:13;10.60;93.50
13326;DHT22;6732;51.044;3.746;2023-04-01T05:38:39;10.60;93.50
13326;DHT22;6732;51.044;3.746;2023-04-01T05:41:05;10.70;93.40
13326;DHT22;6732;51.044;3.746;2023-04-01T05:43:32;10.60;93.40
13326;DHT22;6732;51.044;3.746;2023-04-01T05:46:00;10.60;93.50
13326;DHT22;6732;51.044;3.746;2023-04-01T05:48:26;10.70;93.40
13326;DHT22;6732;51.044;3.746;2023-04-01T05:50:52;10.60;93.40
13326;DHT22;6732;51.044;3.746;2023-04-01T05:53:18;10.60;93.40
13326;DHT22;6732;51.044;3.746;2023-04-01T05:55:43;10.60;93.40
13326;DHT22;6732;51.044;3.746;2023-04-01T05:58:09;10.60;93.50
13326;DHT22;6732;51.044;3.746;2023-04-01T06:00:35;10.60;93.40
13326;DHT22;6732;51.044;3.746;2023-04-01T06:03:01;10.60;93.30
13326;DHT22;6732;51.044;3.746;2023-04-01T06:05:29;10.60;93.30
13326;DHT22;6732;51.044;3.746;2023-04-01T06:08:01;10.60;93.10
13326;DHT22;6732;51.044;3.746;2023-04-01T06:22:33;10.60;93.30
13326;DHT22;6732;51.044;3.746;2023-04-01T06:25:14;10.50;93.40
13326;DHT22;6732;51.044;3.746;2023-04-01T06:27:48;10.50;93.40
13326;DHT22;6732;51.044;3.746;2023-04-01T06:30:45;10.40;93.50
13326;DHT22;6732;51.044;3.746;2023-04-01T06:42:55;10.50;93.50
13326;DHT22;6732;51.044;3.746;2023-04-01T06:45:25;10.50;93.50
13326;DHT22;6732;51.044;3.746;2023-04-01T06:50:50;10.50;93.50
13326;DHT22;6732;51.044;3.746;2023-04-01T06:56:16;10.50;93.60
13326;DHT22;6732;51.044;3.746;2023-04-01T06:58:53;10.50;93.70
13326;DHT22;6732;51.044;3.746;2023-04-01T07:01:24;10.50;93.90
13326;DHT22;6732;51.044;3.746;2023-04-01T07:04:15;10.50;93.90
13326;DHT22;6732;51.044;3.746;2023-04-01T07:06:48;10.50;93.90
13326;DHT22;6732;51.044;3.746;2023-04-01T07:09:24;10.50;93.90
13326;DHT22;6732;51.044;3.746;2023-04-01T07:11:53;10.50;93.90
13326;DHT22;6732;51.044;3.746;2023-04-01T07:14:30;10.50;94.00
13326;DHT22;6732;51.044;3.746;2023-04-01T07:17:20;10.50;94.00
13326;DHT22;6732;51.044;3.746;2023-04-01T07:19:52;10.50;94.00
13326;DHT22;6732;51.044;3.746;2023-04-01T07:22:39;10.50;94.10
13326;DHT22;6732;51.044;3.746;2023-04-01T07:27:42;10.50;94.10
13326;DHT22;6732;51.044;3.746;2023-04-01T07:30:18;10.50;94.10
13326;DHT22;6732;51.044;3.746;2023-04-01T07:38:40;10.50;94.10
13326;DHT22;6732;51.044;3.746;2023-04-01T07:44:13;10.50;94.10
13326;DHT22;6732;51.044;3.746;2023-04-01T08:00:52;10.50;94.20
13326;DHT22;6732;51.044;3.746;2023-04-01T08:03:43;10.50;94.20
13326;DHT22;6732;51.044;3.746;2023-04-01T08:06:24;10.60;94.30
13326;DHT22;6732;51.044;3.746;2023-04-01T08:12:04;10.60;94.40
13326;DHT22;6732;51.044;3.746;2023-04-01T08:14:49;10.60;94.40
13326;DHT22;6732;51.044;3.746;2023-04-01T08:20:21;10.60;94.40
13326;DHT22;6732;51.044;3.746;2023-04-01T08:25:51;10.60;94.40
13326;DHT22;6732;51.044;3.746;2023-04-01T08:28:39;10.60;94.60
13326;DHT22;6732;51.044;3.746;2023-04-01T08:31:13;10.60;94.50
13326;DHT22;6732;51.044;3.746;2023-04-01T08:33:42;10.60;94.50
13326;DHT22;6732;51.044;3.746;2023-04-01T08:36:26;10.60;94.50
13326;DHT22;6732;51.044;3.746;2023-04-01T08:39:03;10.60;94.50
13326;DHT22;6732;51.044;3.746;2023-04-01T08:42:00;10.60;94.70
13326;DHT22;6732;51.044;3.746;2023-04-01T08:45:01;10.60;94.50
13326;DHT22;6732;51.044;3.746;2023-04-01T08:47:52;10.60;94.50
13326;DHT22;6732;51.044;3.746;2023-04-01T08:50:42;10.60;94.40
13326;DHT22;6732;51.044;3.746;2023-04-01T08:56:18;10.60;94.40
13326;DHT22;6732;51.044;3.746;2023-04-01T09:04:25;10.70;94.60
13326;DHT22;6732;51.044;3.746;2023-04-01T09:07:05;10.70;94.70
13326;DHT22;6732;51.044;3.746;2023-04-01T09:09:57;10.70;94.60
13326;DHT22;6732;51.044;3.746;2023-04-01T09:21:03;10.70;94.70
13326;DHT22;6732;51.044;3.746;2023-04-01T09:26:47;10.80;94.90
13326;DHT22;6732;51.044;3.746;2023-04-01T09:32:35;10.80;94.80
13326;DHT22;6732;51.044;3.746;2023-04-01T09:35:35;10.80;94.80
13326;DHT22;6732;51.044;3.746;2023-04-01T09:38:29;10.80;94.70
13326;DHT22;6732;51.044;3.746;2023-04-01T09:40:57;10.80;94.80
13326;DHT22;6732;51.044;3.746;2023-04-01T09:43:48;10.80;94.80
13326;DHT22;6732;51.044;3.746;2023-04-01T09:46:26;10.80;94.60
13326;DHT22;6732;51.044;3.746;2023-04-01T10:05:27;10.80;94.60
13326;DHT22;6732;51.044;3.746;2023-04-01T10:11:15;10.80;94.60
13326;DHT22;6732;51.044;3.746;2023-04-01T10:22:27;10.90;94.60
13326;DHT22;6732;51.044;3.746;2023-04-01T10:25:10;10.90;94.80
13326;DHT22;6732;51.044;3.746;2023-04-01T10:30:28;10.90;94.90
13326;DHT22;6732;51.044;3.746;2023-04-01T10:44:27;10.90;95.20
13326;DHT22;6732;51.044;3.746;2023-04-01T10:56:03;11.10;95.50
13326;DHT22;6732;51.044;3.746;2023-04-01T11:12:16;11.00;94.80
13326;DHT22;6732;51.044;3.746;2023-04-01T11:15:08;11.10;94.60
13326;DHT22;6732;51.044;3.746;2023-04-01T11:18:12;11.00;94.70
13326;DHT22;6732;51.044;3.746;2023-04-01T11:21:21;11.10;94.90
13326;DHT22;6732;51.044;3.746;2023-04-01T11:24:17;11.10;94.90
13326;DHT22;6732;51.044;3.746;2023-04-01T11:32:21;11.10;94.70
13326;DHT22;6732;51.044;3.746;2023-04-01T11:37:57;11.10;94.70
13326;DHT22;6732;51.044;3.746;2023-04-01T11:43:25;11.10;94.50
13326;DHT22;6732;51.044;3.746;2023-04-01T11:46:11;11.10;94.50
13326;DHT22;6732;51.044;3.746;2023-04-01T12:00:33;11.10;94.50
13326;DHT22;6732;51.044;3.746;2023-04-01T12:06:02;11.10;94.30
13326;DHT22;6732;51.044;3.746;2023-04-01T12:09:00;11.10;94.20
13326;DHT22;6732;51.044;3.746;2023-04-01T12:11:39;11.10;94.30
13326;DHT22;6732;51.044;3.746;2023-04-01T12:19:48;11.10;94.20
13326;DHT22;6732;51.044;3.746;2023-04-01T12:24:46;11.10;94.40
13326;DHT22;6732;51.044;3.746;2023-04-01T12:27:38;11.10;94.40
13326;DHT22;6732;51.044;3.746;2023-04-01T12:30:15;11.10;94.50
13326;DHT22;6732;51.044;3.746;2023-04-01T12:33:06;11.10;94.60
13326;DHT22;6732;51.044;3.746;2023-04-01T12:39:05;11.20;94.60
13326;DHT22;6732;51.044;3.746;2023-04-01T12:42:05;11.20;94.50
13326;DHT22;6732;51.044;3.746;2023-04-01T12:50:26;11.10;94.60
13326;DHT22;6732;51.044;3.746;2023-04-01T12:55:43;11.10;94.50
13326;DHT22;6732;51.044;3.746;2023-04-01T13:01:19;11.10;94.50
13326;DHT22;6732;51.044;3.746;2023-04-01T13:10:13;11.10;94.40
13326;DHT22;6732;51.044;3.746;2023-04-01T13:16:56;11.10;94.40
13326;DHT22;6732;51.044;3.746;2023-04-01T13:19:13;11.10;94.40
13326;DHT22;6732;51.044;3.746;2023-04-01T13:27:25;11.10;94.10
13326;DHT22;6732;51.044;3.746;2023-04-01T13:33:14;11.10;94.10
13326;DHT22;6732;51.044;3.746;2023-04-01T13:38:43;11.10;94.30
13326;DHT22;6732;51.044;3.746;2023-04-01T13:43:59;11.10;94.10
13326;DHT22;6732;51.044;3.746;2023-04-01T13:46:41;11.10;94.20
13326;DHT22;6732;51.044;3.746;2023-04-01T14:00:23;11.10;94.20
13326;DHT22;6732;51.044;3.746;2023-04-01T14:05:42;11.10;94.00
13326;DHT22;6732;51.044;3.746;2023-04-01T14:19:11;11.10;94.00
13326;DHT22;6732;51.044;3.746;2023-04-01T14:25:03;11.10;93.80
13326;DHT22;6732;51.044;3.746;2023-04-01T14:30:43;11.10;93.90
13326;DHT22;6732;51.044;3.746;2023-04-01T14:45:08;11.10;93.90
13326;DHT22;6732;51.044;3.746;2023-04-01T14:47:58;11.10;93.90
13326;DHT22;6732;51.044;3.746;2023-04-01T14:50:30;11.10;93.80
13326;DHT22;6732;51.044;3.746;2023-04-01T14:58:13;11.10;94.00
13326;DHT22;6732;51.044;3.746;2023-04-01T15:00:59;11.10;94.00
13326;DHT22;6732;51.044;3.746;2023-04-01T15:03:33;11.10;94.00
13326;DHT22;6732;51.044;3.746;2023-04-01T15:09:03;11.10;94.00
13326;DHT22;6732;51.044;3.746;2023-04-01T15:19:42;11.10;94.00
13326;DHT22;6732;51.044;3.746;2023-04-01T15:31:03;11.10;93.90
13326;DHT22;6732;51.044;3.746;2023-04-01T15:33:43;11.10;93.90
13326;DHT22;6732;51.044;3.746;2023-04-01T15:36:27;11.00;93.80
13326;DHT22;6732;51.044;3.746;2023-04-01T15:45:00;11.00;93.70
13326;DHT22;6732;51.044;3.746;2023-04-01T15:47:36;11.00;93.70
13326;DHT22;6732;51.044;3.746;2023-04-01T15:50:32;11.00;93.80
13326;DHT22;6732;51.044;3.746;2023-04-01T15:53:23;11.00;93.70
13326;DHT22;6732;51.044;3.746;2023-04-01T15:56:16;11.00;93.80
13326;DHT22;6732;51.044;3.746;2023-04-01T15:59:16;11.00;93.80
13326;DHT22;6732;51.044;3.746;2023-04-01T16:01:50;11.00;93.80
13326;DHT22;6732;51.044;3.746;2023-04-01T16:13:28;11.00;93.90
13326;DHT22;6732;51.044;3.746;2023-04-01T16:22:02;11.00;93.90
13326;DHT22;6732;51.044;3.746;2023-04-01T16:27:29;10.90;94.00
13326;DHT22;6732;51.044;3.746;2023-04-01T16:30:35;10.90;93.90
13326;DHT22;6732;51.044;3.746;2023-04-01T16:35:41;10.90;94.00
13326;DHT22;6732;51.044;3.746;2023-04-01T16:38:49;10.90;94.10
13326;DHT22;6732;51.044;3.746;2023-04-01T16:41:14;10.90;94.00
13326;DHT22;6732;51.044;3.746;2023-04-01T16:43:45;10.90;94.00
13326;DHT22;6732;51.044;3.746;2023-04-01T16:51:47;10.90;93.90
13326;DHT22;6732;51.044;3.746;2023-04-01T16:56:50;10.90;94.10
13326;DHT22;6732;51.044;3.746;2023-04-01T17:15:42;10.90;94.00
13326;DHT22;6732;51.044;3.746;2023-04-01T17:18:34;10.80;94.10
13326;DHT22;6732;51.044;3.746;2023-04-01T17:21:15;10.80;94.10
13326;DHT22;6732;51.044;3.746;2023-04-01T17:23:51;10.80;94.00
13326;DHT22;6732;51.044;3.746;2023-04-01T17:26:32;10.80;94.00
13326;DHT22;6732;51.044;3.746;2023-04-01T17:32:06;10.80;93.90
13326;DHT22;6732;51.044;3.746;2023-04-01T17:43:10;10.80;93.70
13326;DHT22;6732;51.044;3.746;2023-04-01T17:45:57;10.70;93.70
13326;DHT22;6732;51.044;3.746;2023-04-01T17:48:47;10.70;93.70
13326;DHT22;6732;51.044;3.746;2023-04-01T17:51:24;10.70;93.70
13326;DHT22;6732;51.044;3.746;2023-04-01T17:59:16;10.70;93.60
13326;DHT22;6732;51.044;3.746;2023-04-01T18:05:27;10.60;93.60
13326;DHT22;6732;51.044;3.746;2023-04-01T18:08:17;10.60;93.50
13326;DHT22;6732;51.044;3.746;2023-04-01T18:11:18;10.60;93.50
13326;DHT22;6732;51.044;3.746;2023-04-01T18:14:03;10.60;93.60
13326;DHT22;6732;51.044;3.746;2023-04-01T18:17:03;10.60;93.60
13326;DHT22;6732;51.044;3.746;2023-04-01T18:25:36;10.60;93.60
13326;DHT22;6732;51.044;3.746;2023-04-01T18:28:27;10.60;93.60
13326;DHT22;6732;51.044;3.746;2023-04-01T18:31:06;10.60;93.60
13326;DHT22;6732;51.044;3.746;2023-04-01T18:39:08;10.50;93.80
13326;DHT22;6732;51.044;3.746;2023-04-01T18:44:34;10.50;93.80
13326;DHT22;6732;51.044;3.746;2023-04-01T18:50:11;10.50;93.90
13326;DHT22;6732;51.044;3.746;2023-04-01T18:52:42;10.50;93.90
13326;DHT22;6732;51.044;3.746;2023-04-01T18:58:28;10.50;93.80
13326;DHT22;6732;51.044;3.746;2023-04-01T19:09:26;10.50;93.80
13326;DHT22;6732;51.044;3.746;2023-04-01T19:25:55;10.50;93.70
13326;DHT22;6732;51.044;3.746;2023-04-01T19:36:45;10.40;93.70
13326;DHT22;6732;51.044;3.746;2023-04-01T19:42:17;10.40;93.90
13326;DHT22;6732;51.044;3.746;2023-04-01T19:47:52;10.40;93.70
13326;DHT22;6732;51.044;3.746;2023-04-01T19:50:42;10.40;93.70
13326;DHT22;6732;51.044;3.746;2023-04-01T20:01:47;10.30;93.80
13326;DHT22;6732;51.044;3.746;2023-04-01T20:04:22;10.30;93.70
13326;DHT22;6732;51.044;3.746;2023-04-01T20:10:25;10.30;93.80
13326;DHT22;6732;51.044;3.746;2023-04-01T20:13:23;10.30;93.80
13326;DHT22;6732;51.044;3.746;2023-04-01T20:16:07;10.30;93.80
13326;DHT22;6732;51.044;3.746;2023-04-01T20:18:54;10.30;93.80
13326;DHT22;6732;51.044;3.746;2023-04-01T20:21:41;10.30;93.70
13326;DHT22;6732;51.044;3.746;2023-04-01T20:24:18;10.30;93.80
13326;DHT22;6732;51.044;3.746;2023-04-01T20:26:59;10.30;93.70
13326;DHT22;6732;51.044;3.746;2023-04-01T20:30:00;10.30;93.80
13326;DHT22;6732;51.044;3.746;2023-04-01T20:41:27;10.30;93.80
13326;DHT22;6732;51.044;3.746;2023-04-01T20:44:03;10.30;93.90
13326;DHT22;6732;51.044;3.746;2023-04-01T20:57:31;10.30;93.90
13326;DHT22;6732;51.044;3.746;2023-04-01T21:00:15;10.30;94.00
13326;DHT22;6732;51.044;3.746;2023-04-01T21:05:31;10.30;94.00
13326;DHT22;6732;51.044;3.746;2023-04-01T21:08:08;10.20;94.20
13326;DHT22;6732;51.044;3.746;2023-04-01T21:10:59;10.20;94.10
13326;DHT22;6732;51.044;3.746;2023-04-01T21:35:38;10.20;94.10
13326;DHT22;6732;51.044;3.746;2023-04-01T21:51:55;10.10;94.30
13326;DHT22;6732;51.044;3.746;2023-04-01T22:00:19;10.20;94.20
13326;DHT22;6732;51.044;3.746;2023-04-01T22:05:47;10.20;94.10
13326;DHT22;6732;51.044;3.746;2023-04-01T22:11:19;10.20;94.10
13326;DHT22;6732;51.044;3.746;2023-04-01T22:14:02;10.10;94.10
13326;DHT22;6732;51.044;3.746;2023-04-01T22:16:45;10.20;94.10
13326;DHT22;6732;51.044;3.746;2023-04-01T22:24:37;10.20;94.00
13326;DHT22;6732;51.044;3.746;2023-04-01T22:32:31;10.10;94.00
13326;DHT22;6732;51.044;3.746;2023-04-01T22:40:39;10.10;94.10
13326;DHT22;6732;51.044;3.746;2023-04-01T22:49:00;10.10;94.00
13326;DHT22;6732;51.044;3.746;2023-04-01T22:54:17;10.10;93.90
13326;DHT22;6732;51.044;3.746;2023-04-01T22:56:49;10.10;93.90
13326;DHT22;6732;51.044;3.746;2023-04-01T22:59:31;10.10;93.90
13326;DHT22;6732;51.044;3.746;2023-04-01T23:02:09;10.10;93.90
13326;DHT22;6732;51.044;3.746;2023-04-01T23:04:43;10.10;93.90
13326;DHT22;6732;51.044;3.746;2023-04-01T23:07:27;10.10;93.90
13326;DHT22;6732;51.044;3.746;2023-04-01T23:09:57;10.10;93.80
13326;DHT22;6732;51.044;3.746;2023-04-01T23:12:25;10.10;93.90
13326;DHT22;6732;51.044;3.746;2023-04-01T23:14:55;10.10;94.00
13326;DHT22;6732;51.044;3.746;2023-04-01T23:17:25;10.10;94.10
13326;DHT22;6732;51.044;3.746;2023-04-01T23:25:23;10.10;93.90
13326;DHT22;6732;51.044;3.746;2023-04-01T23:28:17;10.10;93.90
13326;DHT22;6732;51.044;3.746;2023-04-01T23:30:47;10.10;94.00
13326;DHT22;6732;51.044;3.746;2023-04-01T23:35:53;10.10;94.00
13326;DHT22;6732;51.044;3.746;2023-04-01T23:38:22;10.10;94.00
13326;DHT22;6732;51.044;3.746;2023-04-01T23:40:51;10.10;94.10
13326;DHT22;6732;51.044;3.746;2023-04-01T23:45:49;10.10;94.00
13326;DHT22;6732;51.044;3.746;2023-04-01T23:48:16;10.00;93.90
13326;DHT22;6732;51.044;3.746;2023-04-01T23:50:45;10.00;94.00
13326;DHT22;6732;51.044;3.746;2023-04-01T23:53:21;10.00;93.90
13326;DHT22;6732;51.044;3.746;2023-04-01T23:55:49;10.10;94.00
